createdAt,value
2022-08-11T00:07:53.469Z,12.04
2022-08-11T00:20:14.493Z,12.03
2022-08-11T00:31:53.607Z,12.01
2022-08-11T00:43:53.540Z,12.00
2022-08-11T00:55:55.773Z,11.99
2022-08-11T01:08:00.511Z,11.96
2022-08-11T01:20:39.756Z,11.96
2022-08-11T01:31:53.951Z,11.93
2022-08-11T01:43:53.929Z,11.93
2022-08-11T01:55:53.490Z,11.92
2022-08-11T02:07:53.459Z,11.90
2022-08-11T02:19:53.469Z,11.89
2022-08-11T02:32:11.109Z,11.87
2022-08-11T02:43:53.467Z,11.86
2022-08-11T02:55:57.275Z,11.84
2022-08-11T03:07:54.020Z,11.83
2022-08-11T03:19:53.513Z,11.82
2022-08-11T03:31:53.464Z,11.80
2022-08-11T03:43:58.250Z,11.79
2022-08-11T03:55:53.462Z,11.78
2022-08-11T04:07:53.459Z,11.76
2022-08-11T04:19:53.484Z,11.75
2022-08-11T04:31:53.457Z,11.74
2022-08-11T04:44:05.779Z,11.72
2022-08-11T04:55:53.470Z,11.72
2022-08-11T05:07:53.486Z,11.71
2022-08-11T05:19:53.465Z,11.71
2022-08-11T05:31:53.497Z,11.70
2022-08-11T05:44:19.788Z,11.71
2022-08-11T05:56:02.093Z,11.71
2022-08-11T06:07:53.477Z,11.73
2022-08-11T06:19:53.468Z,11.75
2022-08-11T06:31:53.438Z,11.80
2022-08-11T06:43:55.948Z,11.85
2022-08-11T06:55:56.815Z,11.88
2022-08-11T07:07:53.471Z,11.98
2022-08-11T07:19:53.483Z,12.04
2022-08-11T07:31:53.465Z,12.16
2022-08-11T07:43:53.461Z,12.25
2022-08-11T07:55:53.623Z,12.34
2022-08-11T08:07:53.454Z,12.51
2022-08-11T08:19:53.479Z,12.61
2022-08-11T08:31:53.439Z,12.63
2022-08-11T08:43:53.416Z,12.65
2022-08-11T08:55:53.652Z,12.65
2022-08-11T09:07:53.460Z,12.66
2022-08-11T09:19:56.757Z,12.66
2022-08-11T09:31:53.472Z,12.66
2022-08-11T09:43:53.440Z,12.66
2022-08-11T09:55:53.506Z,12.66
2022-08-11T10:07:53.462Z,12.66
2022-08-11T10:20:04.148Z,12.65
2022-08-11T10:39:12.445Z,12.65
2022-08-11T11:01:57.952Z,12.65
2022-08-11T11:13:57.870Z,12.65
2022-08-11T11:25:58.448Z,12.65
2022-08-11T11:38:04.435Z,12.65
2022-08-11T11:49:59.258Z,12.65
2022-08-11T12:01:57.853Z,12.64
2022-08-11T12:13:57.857Z,12.65
2022-08-11T12:26:16.520Z,12.65
2022-08-11T12:38:03.802Z,12.64
2022-08-11T12:49:57.888Z,12.65
2022-08-11T13:01:57.866Z,12.65
2022-08-11T13:13:58.073Z,12.66
2022-08-11T13:25:57.856Z,12.66
2022-08-11T13:38:18.737Z,12.66
2022-08-11T13:49:57.799Z,12.66
2022-08-11T14:02:20.191Z,12.66
2022-08-11T14:13:57.873Z,12.66
2022-08-11T14:26:00.393Z,12.64
2022-08-11T14:37:57.858Z,12.63
2022-08-11T14:50:10.023Z,12.63
2022-08-11T15:01:57.838Z,12.62
2022-08-11T15:13:57.866Z,12.62
2022-08-11T15:25:57.821Z,12.62
2022-08-11T15:37:57.984Z,12.62
2022-08-11T15:50:11.459Z,12.63
2022-08-11T16:01:57.864Z,12.62
2022-08-11T16:13:57.833Z,12.62
2022-08-11T16:27:09.079Z,12.62
2022-08-11T16:37:58.006Z,12.60
2022-08-11T16:49:57.829Z,12.59
2022-08-11T17:01:57.848Z,12.58
2022-08-11T17:13:57.863Z,12.58
2022-08-11T17:25:59.599Z,12.57
2022-08-11T17:37:57.864Z,12.55
2022-08-11T17:50:14.638Z,12.54
2022-08-11T18:01:57.897Z,12.52
2022-08-11T18:13:57.844Z,12.51
2022-08-11T18:25:57.848Z,12.50
2022-08-11T18:37:57.860Z,12.48
2022-08-11T18:50:02.592Z,12.46
2022-08-11T19:01:57.853Z,12.44
2022-08-11T19:13:57.863Z,12.42
2022-08-11T19:25:57.827Z,12.40
2022-08-11T19:37:57.848Z,12.38
2022-08-11T19:49:57.871Z,12.36
2022-08-11T20:02:12.656Z,12.34
2022-08-11T20:13:57.849Z,12.33
2022-08-11T20:26:08.547Z,12.32
2022-08-11T20:37:57.864Z,12.29
2022-08-11T20:49:58.696Z,12.28
2022-08-11T21:01:57.883Z,12.26
2022-08-11T21:13:57.863Z,12.25
2022-08-11T21:25:59.325Z,12.23
2022-08-11T21:37:57.858Z,12.22
2022-08-11T21:49:57.860Z,12.20
2022-08-11T22:01:57.892Z,12.18
2022-08-11T22:14:05.715Z,12.17
2022-08-11T22:26:02.318Z,12.16
2022-08-11T22:37:57.857Z,12.14
2022-08-11T22:49:58.555Z,12.13
2022-08-11T23:01:57.904Z,12.11
2022-08-11T23:13:57.850Z,12.09
2022-08-11T23:25:57.846Z,12.09
2022-08-11T23:37:59.765Z,12.06
2022-08-11T23:49:57.872Z,12.05
